sensor_id;sensor_type;location;lat;lon;timestamp;pressure;altitude;pressure_sealevel;temperature;humidity
30421;BME280;17218;54.070;10.012;2023-04-20T00:01:02;102254.06;;;8.69;81.80
30421;BME280;17218;54.070;10.012;2023-04-20T00:03:30;102260.94;;;8.68;75.75
30421;BME280;17218;54.070;10.012;2023-04-20T00:05:57;102250.66;;;8.71;76.70
30421;BME280;17218;54.070;10.012;2023-04-20T00:08:26;102253.41;;;8.78;74.83
30421;BME280;17218;54.070;10.012;2023-04-20T00:10:52;102241.44;;;8.81;73.56
30421;BME280;17218;54.070;10.012;2023-04-20T00:13:19;102236.47;;;8.89;75.27
30421;BME280;17218;54.070;10.012;2023-04-20T00:15:45;102242.69;;;8.99;75.42
30421;BME280;17218;54.070;10.012;2023-04-20T00:18:12;102235.81;;;8.98;74.73
30421;BME280;17218;54.070;10.012;2023-04-20T00:20:39;102229.72;;;8.96;75.93
30421;BME280;17218;54.070;10.012;2023-04-20T00:23:06;102233.03;;;8.90;77.60
30421;BME280;17218;54.070;10.012;2023-04-20T00:25:33;102226.03;;;8.86;79.68
30421;BME280;17218;54.070;10.012;2023-04-20T00:27:59;102227.31;;;8.67;80.69
30421;BME280;17218;54.070;10.012;2023-04-20T00:30:26;102220.34;;;8.64;81.85
30421;BME280;17218;54.070;10.012;2023-04-20T00:32:52;102213.41;;;8.62;84.57
30421;BME280;17218;54.070;10.012;2023-04-20T00:35:18;102208.16;;;8.58;82.79
30421;BME280;17218;54.070;10.012;2023-04-20T00:37:46;102219.13;;;8.51;86.00
30421;BME280;17218;54.070;10.012;2023-04-20T00:40:13;102218.91;;;8.42;87.66
30421;BME280;17218;54.070;10.012;2023-04-20T00:42:40;102217.16;;;8.41;87.95
30421;BME280;17218;54.070;10.012;2023-04-20T00:45:07;102197.00;;;8.27;90.04
30421;BME280;17218;54.070;10.012;2023-04-20T00:47:34;102198.81;;;8.30;92.04
30421;BME280;17218;54.070;10.012;2023-04-20T00:50:00;102192.69;;;8.26;89.60
30421;BME280;17218;54.070;10.012;2023-04-20T00:52:27;102196.09;;;8.25;91.80
30421;BME280;17218;54.070;10.012;2023-04-20T00:54:55;102184.81;;;8.21;92.86
30421;BME280;17218;54.070;10.012;2023-04-20T00:57:21;102193.34;;;8.17;91.50
30421;BME280;17218;54.070;10.012;2023-04-20T00:59:48;102188.06;;;8.14;93.71
30421;BME280;17218;54.070;10.012;2023-04-20T01:02:15;102191.28;;;8.05;93.01
30421;BME280;17218;54.070;10.012;2023-04-20T01:04:42;102180.13;;;8.06;94.83
30421;BME280;17218;54.070;10.012;2023-04-20T01:07:09;102173.56;;;7.85;93.21
30421;BME280;17218;54.070;10.012;2023-04-20T01:09:36;102172.66;;;7.83;93.84
30421;BME280;17218;54.070;10.012;2023-04-20T01:12:05;102173.31;;;7.76;92.43
30421;BME280;17218;54.070;10.012;2023-04-20T01:14:31;102166.47;;;7.77;94.20
30421;BME280;17218;54.070;10.012;2023-04-20T01:16:58;102161.44;;;7.83;93.03
30421;BME280;17218;54.070;10.012;2023-04-20T01:19:24;102158.81;;;7.80;91.73
30421;BME280;17218;54.070;10.012;2023-04-20T01:21:51;102152.69;;;7.76;92.42
30421;BME280;17218;54.070;10.012;2023-04-20T01:24:19;102151.69;;;7.71;94.85
30421;BME280;17218;54.070;10.012;2023-04-20T01:26:45;102144.63;;;7.63;94.19
30421;BME280;17218;54.070;10.012;2023-04-20T01:29:12;102149.78;;;7.63;95.48
30421;BME280;17218;54.070;10.012;2023-04-20T01:31:38;102144.72;;;7.68;95.54
30421;BME280;17218;54.070;10.012;2023-04-20T01:34:04;102147.44;;;7.73;95.58
30421;BME280;17218;54.070;10.012;2023-04-20T01:36:31;102144.13;;;7.79;99.23
30421;BME280;17218;54.070;10.012;2023-04-20T01:38:58;102153.72;;;7.83;97.59
30421;BME280;17218;54.070;10.012;2023-04-20T01:41:26;102148.63;;;7.86;99.56
30421;BME280;17218;54.070;10.012;2023-04-20T01:43:52;102151.22;;;7.86;100.00
30421;BME280;17218;54.070;10.012;2023-04-20T01:46:19;102147.19;;;7.96;100.00
30421;BME280;17218;54.070;10.012;2023-04-20T01:48:45;102145.50;;;7.98;98.60
30421;BME280;17218;54.070;10.012;2023-04-20T01:51:12;102136.91;;;7.99;98.60
30421;BME280;17218;54.070;10.012;2023-04-20T01:53:38;102135.19;;;7.98;100.00
30421;BME280;17218;54.070;10.012;2023-04-20T01:56:05;102142.16;;;8.01;100.00
30421;BME280;17218;54.070;10.012;2023-04-20T01:58:33;102144.09;;;8.09;99.99
30421;BME280;17218;54.070;10.012;2023-04-20T02:01:00;102144.63;;;7.97;100.00
30421;BME280;17218;54.070;10.012;2023-04-20T02:03:26;102152.22;;;7.91;100.00
30421;BME280;17218;54.070;10.012;2023-04-20T02:05:53;102145.41;;;7.93;99.97
30421;BME280;17218;54.070;10.012;2023-04-20T02:08:19;102135.19;;;7.98;100.00
30421;BME280;17218;54.070;10.012;2023-04-20T02:10:46;102142.84;;;7.95;98.78
30421;BME280;17218;54.070;10.012;2023-04-20T02:13:12;102135.91;;;7.92;100.00
30421;BME280;17218;54.070;10.012;2023-04-20T02:15:40;102136.78;;;7.93;99.96
30421;BME280;17218;54.070;10.012;2023-04-20T02:18:07;102138.31;;;7.86;98.68
30421;BME280;17218;54.070;10.012;2023-04-20T02:20:33;102137.50;;;7.87;98.23
30421;BME280;17218;54.070;10.012;2023-04-20T02:23:00;102132.78;;;7.72;98.86
30421;BME280;17218;54.070;10.012;2023-04-20T02:25:26;102126.22;;;7.83;98.42
30421;BME280;17218;54.070;10.012;2023-04-20T02:27:53;102129.78;;;7.88;100.00
30421;BME280;17218;54.070;10.012;2023-04-20T02:30:20;102120.22;;;7.84;99.30
30421;BME280;17218;54.070;10.012;2023-04-20T02:32:48;102126.50;;;7.94;98.73
30421;BME280;17218;54.070;10.012;2023-04-20T02:35:14;102118.72;;;7.93;98.75
30421;BME280;17218;54.070;10.012;2023-04-20T02:37:41;102114.53;;;7.98;100.00
30421;BME280;17218;54.070;10.012;2023-04-20T02:40:09;102111.75;;;7.90;99.35
30421;BME280;17218;54.070;10.012;2023-04-20T02:42:35;102106.69;;;7.93;100.00
30421;BME280;17218;54.070;10.012;2023-04-20T02:45:02;102098.78;;;7.87;100.00
30421;BME280;17218;54.070;10.012;2023-04-20T02:47:29;102103.19;;;7.91;100.00
30421;BME280;17218;54.070;10.012;2023-04-20T02:49:57;102099.03;;;7.96;100.00
30421;BME280;17218;54.070;10.012;2023-04-20T02:52:23;102102.59;;;8.02;100.00
30421;BME280;17218;54.070;10.012;2023-04-20T02:54:50;102110.44;;;8.06;100.00
30421;BME280;17218;54.070;10.012;2023-04-20T02:57:16;102095.75;;;8.04;100.00
30421;BME280;17218;54.070;10.012;2023-04-20T02:59:43;102096.56;;;8.01;100.00
30421;BME280;17218;54.070;10.012;2023-04-20T03:02:09;102094.75;;;7.97;100.00
30421;BME280;17218;54.070;10.012;2023-04-20T03:04:36;102100.47;;;7.86;100.00
30421;BME280;17218;54.070;10.012;2023-04-20T03:07:05;102087.50;;;7.83;100.00
30421;BME280;17218;54.070;10.012;2023-04-20T03:09:32;102094.22;;;7.77;100.00
30421;BME280;17218;54.070;10.012;2023-04-20T03:11:58;102090.88;;;7.81;100.00
30421;BME280;17218;54.070;10.012;2023-04-20T03:14:26;102094.22;;;7.77;100.00
30421;BME280;17218;54.070;10.012;2023-04-20T03:16:53;102096.56;;;7.67;100.00
30421;BME280;17218;54.070;10.012;2023-04-20T03:19:19;102088.81;;;7.67;100.00
30421;BME280;17218;54.070;10.012;2023-04-20T03:21:46;102087.91;;;7.65;100.00
30421;BME280;17218;54.070;10.012;2023-04-20T03:24:14;102083.31;;;7.55;100.00
30421;BME280;17218;54.070;10.012;2023-04-20T03:26:41;102083.38;;;7.56;100.00
30421;BME280;17218;54.070;10.012;2023-04-20T03:29:07;102073.19;;;7.61;100.00
30421;BME280;17218;54.070;10.012;2023-04-20T03:31:34;102070.63;;;7.62;100.00
30421;BME280;17218;54.070;10.012;2023-04-20T03:34:00;102075.88;;;7.66;100.00
30421;BME280;17218;54.070;10.012;2023-04-20T03:36:26;102069.88;;;7.67;100.00
30421;BME280;17218;54.070;10.012;2023-04-20T03:38:53;102066.63;;;7.74;100.00
30421;BME280;17218;54.070;10.012;2023-04-20T03:41:21;102071.09;;;7.80;100.00
30421;BME280;17218;54.070;10.012;2023-04-20T03:43:47;102071.88;;;7.77;100.00
30421;BME280;17218;54.070;10.012;2023-04-20T03:46:14;102072.25;;;7.59;100.00
30421;BME280;17218;54.070;10.012;2023-04-20T03:48:40;102078.13;;;7.53;100.00
30421;BME280;17218;54.070;10.012;2023-04-20T03:51:07;102072.03;;;7.51;100.00
30421;BME280;17218;54.070;10.012;2023-04-20T03:53:33;102084.16;;;7.54;100.00
30421;BME280;17218;54.070;10.012;2023-04-20T03:56:00;102085.00;;;7.53;100.00
30421;BME280;17218;54.070;10.012;2023-04-20T03:58:28;102079.03;;;7.55;100.00
30421;BME280;17218;54.070;10.012;2023-04-20T04:01:00;102088.47;;;7.55;100.00
30421;BME280;17218;54.070;10.012;2023-04-20T04:03:27;102085.63;;;7.45;100.00
30421;BME280;17218;54.070;10.012;2023-04-20T04:05:53;102085.00;;;7.53;100.00
30421;BME280;17218;54.070;10.012;2023-04-20T04:08:20;102077.66;;;7.68;100.00
30421;BME280;17218;54.070;10.012;2023-04-20T04:10:46;102057.94;;;7.70;100.00
30421;BME280;17218;54.070;10.012;2023-04-20T04:13:13;102068.91;;;7.61;100.00
30421;BME280;17218;54.070;10.012;2023-04-20T04:15:41;102084.47;;;7.66;100.00
30421;BME280;17218;54.070;10.012;2023-04-20T04:18:07;102076.72;;;7.64;100.00
30421;BME280;17218;54.070;10.012;2023-04-20T04:20:33;102078.72;;;7.43;100.00
30421;BME280;17218;54.070;10.012;2023-04-20T04:23:00;102089.75;;;7.38;100.00
30421;BME280;17218;54.070;10.012;2023-04-20T04:25:26;102079.72;;;7.48;100.00
30421;BME280;17218;54.070;10.012;2023-04-20T04:27:53;102072.34;;;7.30;100.00
30421;BME280;17218;54.070;10.012;2023-04-20T04:30:20;102070.06;;;7.40;100.00
30421;BME280;17218;54.070;10.012;2023-04-20T04:32:49;102081.25;;;7.41;100.00
30421;BME280;17218;54.070;10.012;2023-04-20T04:35:16;102076.63;;;7.29;100.00
30421;BME280;17218;54.070;10.012;2023-04-20T04:37:43;102057.50;;;7.21;100.00
30421;BME280;17218;54.070;10.012;2023-04-20T04:40:09;102072.28;;;7.26;100.00
30421;BME280;17218;54.070;10.012;2023-04-20T04:42:37;102067.19;;;7.30;100.00
30421;BME280;17218;54.070;10.012;2023-04-20T04:45:04;102069.09;;;7.37;100.00
30421;BME280;17218;54.070;10.012;2023-04-20T04:47:33;102068.81;;;7.26;100.00
30421;BME280;17218;54.070;10.012;2023-04-20T04:50:01;102060.50;;;7.36;100.00
30421;BME280;17218;54.070;10.012;2023-04-20T04:52:30;102071.97;;;7.48;100.00
30421;BME280;17218;54.070;10.012;2023-04-20T04:54:57;102070.91;;;7.39;100.00
30421;BME280;17218;54.070;10.012;2023-04-20T04:57:23;102065.09;;;7.47;100.00
30421;BME280;17218;54.070;10.012;2023-04-20T04:59:50;102080.31;;;7.37;100.00
30421;BME280;17218;54.070;10.012;2023-04-20T05:02:16;102075.25;;;7.42;100.00
30421;BME280;17218;54.070;10.012;2023-04-20T05:04:43;102085.03;;;7.54;100.00
30421;BME280;17218;54.070;10.012;2023-04-20T05:07:10;102081.66;;;7.57;100.00
30421;BME280;17218;54.070;10.012;2023-04-20T05:09:38;102073.50;;;7.73;100.00
30421;BME280;17218;54.070;10.012;2023-04-20T05:12:05;102084.47;;;7.66;100.00
30421;BME280;17218;54.070;10.012;2023-04-20T05:14:32;102089.50;;;7.60;100.00
30421;BME280;17218;54.070;10.012;2023-04-20T05:16:59;102092.06;;;7.60;100.00
30421;BME280;17218;54.070;10.012;2023-04-20T05:19:26;102094.50;;;7.55;100.00
30421;BME280;17218;54.070;10.012;2023-04-20T05:21:52;102079.63;;;7.45;100.00
30421;BME280;17218;54.070;10.012;2023-04-20T05:24:20;102092.56;;;7.46;100.00
30421;BME280;17218;54.070;10.012;2023-04-20T05:26:47;102090.16;;;7.53;100.00
30421;BME280;17218;54.070;10.012;2023-04-20T05:29:14;102100.66;;;7.60;100.00
30421;BME280;17218;54.070;10.012;2023-04-20T05:31:41;102085.78;;;7.50;100.00
30421;BME280;17218;54.070;10.012;2023-04-20T05:34:07;102100.63;;;7.59;100.00
30421;BME280;17218;54.070;10.012;2023-04-20T05:36:34;102108.44;;;7.62;100.00
30421;BME280;17218;54.070;10.012;2023-04-20T05:39:00;102096.84;;;7.78;100.00
30421;BME280;17218;54.070;10.012;2023-04-20T05:41:28;102107.94;;;7.75;100.00
30421;BME280;17218;54.070;10.012;2023-04-20T05:43:55;102107.25;;;7.81;100.00
30421;BME280;17218;54.070;10.012;2023-04-20T05:46:22;102105.19;;;7.69;100.00
30421;BME280;17218;54.070;10.012;2023-04-20T05:48:49;102111.81;;;7.59;100.00
30421;BME280;17218;54.070;10.012;2023-04-20T05:51:16;102115.63;;;7.42;100.00
30421;BME280;17218;54.070;10.012;2023-04-20T05:53:42;102115.00;;;7.49;100.00
30421;BME280;17218;54.070;10.012;2023-04-20T05:56:08;102115.22;;;7.58;100.00
30421;BME280;17218;54.070;10.012;2023-04-20T05:58:37;102118.53;;;7.53;100.00
30421;BME280;17218;54.070;10.012;2023-04-20T06:01:03;102107.47;;;7.58;100.00
30421;BME280;17218;54.070;10.012;2023-04-20T06:03:30;102112.53;;;7.54;100.00
30421;BME280;17218;54.070;10.012;2023-04-20T06:05:56;102110.28;;;7.66;100.00
30421;BME280;17218;54.070;10.012;2023-04-20T06:08:23;102111.38;;;7.74;100.00
30421;BME280;17218;54.070;10.012;2023-04-20T06:10:52;102101.88;;;7.73;100.00
30421;BME280;17218;54.070;10.012;2023-04-20T06:13:19;102114.03;;;7.78;100.00
30421;BME280;17218;54.070;10.012;2023-04-20T06:15:46;102118.75;;;7.94;100.00
30421;BME280;17218;54.070;10.012;2023-04-20T06:18:13;102112.06;;;8.03;100.00
30421;BME280;17218;54.070;10.012;2023-04-20T06:20:41;102116.53;;;8.10;100.00
30421;BME280;17218;54.070;10.012;2023-04-20T06:23:08;102113.13;;;8.09;100.00
30421;BME280;17218;54.070;10.012;2023-04-20T06:25:34;102112.44;;;8.17;100.00
30421;BME280;17218;54.070;10.012;2023-04-20T06:28:01;102110.59;;;8.13;100.00
30421;BME280;17218;54.070;10.012;2023-04-20T06:30:27;102122.56;;;8.09;100.00
30421;BME280;17218;54.070;10.012;2023-04-20T06:32:55;102124.09;;;8.01;100.00
30421;BME280;17218;54.070;10.012;2023-04-20T06:35:22;102118.28;;;8.09;100.00
30421;BME280;17218;54.070;10.012;2023-04-20T06:37:49;102114.19;;;8.19;100.00
30421;BME280;17218;54.070;10.012;2023-04-20T06:40:15;102117.13;;;8.33;100.00
30421;BME280;17218;54.070;10.012;2023-04-20T06:42:43;102119.16;;;8.47;100.00
30421;BME280;17218;54.070;10.012;2023-04-20T06:45:10;102118.59;;;8.57;100.00
30421;BME280;17218;54.070;10.012;2023-04-20T06:47:37;102112.06;;;8.38;100.00
30421;BME280;17218;54.070;10.012;2023-04-20T06:50:06;102109.50;;;8.38;100.00
30421;BME280;17218;54.070;10.012;2023-04-20T06:52:33;102105.28;;;8.42;100.00
30421;BME280;17218;54.070;10.012;2023-04-20T06:55:00;102111.34;;;8.44;100.00
30421;BME280;17218;54.070;10.012;2023-04-20T06:57:27;102099.50;;;8.52;100.00
30421;BME280;17218;54.070;10.012;2023-04-20T06:59:53;102109.59;;;8.78;100.00
30421;BME280;17218;54.070;10.012;2023-04-20T07:02:20;102106.56;;;8.58;100.00
30421;BME280;17218;54.070;10.012;2023-04-20T07:04:46;102113.53;;;8.62;100.00
30421;BME280;17218;54.070;10.012;2023-04-20T07:07:14;102114.94;;;8.88;100.00
30421;BME280;17218;54.070;10.012;2023-04-20T07:09:41;102115.34;;;9.06;100.00
30421;BME280;17218;54.070;10.012;2023-04-20T07:12:07;102119.59;;;9.04;100.00
30421;BME280;17218;54.070;10.012;2023-04-20T07:14:35;102119.75;;;9.11;100.00
30421;BME280;17218;54.070;10.012;2023-04-20T07:17:02;102119.34;;;8.92;100.00
30421;BME280;17218;54.070;10.012;2023-04-20T07:19:28;102110.59;;;8.85;100.00
30421;BME280;17218;54.070;10.012;2023-04-20T07:21:54;102114.47;;;8.66;100.00
30421;BME280;17218;54.070;10.012;2023-04-20T07:24:22;102112.13;;;8.77;100.00
30421;BME280;17218;54.070;10.012;2023-04-20T07:26:49;102115.94;;;8.93;100.00
30421;BME280;17218;54.070;10.012;2023-04-20T07:29:15;102119.94;;;8.78;100.00
30421;BME280;17218;54.070;10.012;2023-04-20T07:31:42;102118.22;;;8.80;100.00
30421;BME280;17218;54.070;10.012;2023-04-20T07:34:08;102107.03;;;8.80;100.00
30421;BME280;17218;54.070;10.012;2023-04-20T07:36:35;102116.44;;;8.76;100.00
30421;BME280;17218;54.070;10.012;2023-04-20T07:39:03;102117.47;;;8.85;100.00
30421;BME280;17218;54.070;10.012;2023-04-20T07:41:31;102131.56;;;8.99;100.00
30421;BME280;17218;54.070;10.012;2023-04-20T07:43:58;102111.81;;;9.03;100.00
30421;BME280;17218;54.070;10.012;2023-04-20T07:46:24;102126.72;;;9.15;100.00
30421;BME280;17218;54.070;10.012;2023-04-20T07:48:52;102115.56;;;9.17;100.00
30421;BME280;17218;54.070;10.012;2023-04-20T07:51:19;102134.56;;;9.19;100.00
30421;BME280;17218;54.070;10.012;2023-04-20T07:53:45;102132.69;;;9.12;100.00
30421;BME280;17218;54.070;10.012;2023-04-20T07:56:12;102131.81;;;9.12;100.00
30421;BME280;17218;54.070;10.012;2023-04-20T07:58:39;102131.25;;;9.25;100.00
30421;BME280;17218;54.070;10.012;2023-04-20T08:01:06;102129.81;;;9.40;100.00
30421;BME280;17218;54.070;10.012;2023-04-20T08:03:32;102134.88;;;9.34;100.00
30421;BME280;17218;54.070;10.012;2023-04-20T08:05:59;102133.75;;;9.21;100.00
30421;BME280;17218;54.070;10.012;2023-04-20T08:08:26;102129.22;;;9.12;100.00
30421;BME280;17218;54.070;10.012;2023-04-20T08:10:52;102137.31;;;8.86;100.00
30421;BME280;17218;54.070;10.012;2023-04-20T08:13:21;102141.41;;;8.76;100.00
30421;BME280;17218;54.070;10.012;2023-04-20T08:15:49;102136.97;;;8.71;100.00
30421;BME280;17218;54.070;10.012;2023-04-20T08:18:15;102146.38;;;8.68;100.00
30421;BME280;17218;54.070;10.012;2023-04-20T08:20:41;102147.94;;;8.61;100.00
30421;BME280;17218;54.070;10.012;2023-04-20T08:23:10;102141.91;;;8.61;100.00
30421;BME280;17218;54.070;10.012;2023-04-20T08:25:37;102143.69;;;8.63;100.00
30421;BME280;17218;54.070;10.012;2023-04-20T08:28:04;102150.81;;;8.74;100.00
30421;BME280;17218;54.070;10.012;2023-04-20T08:30:30;102149.03;;;8.71;100.00
30421;BME280;17218;54.070;10.012;2023-04-20T08:32:58;102146.19;;;8.60;100.00
30421;BME280;17218;54.070;10.012;2023-04-20T08:35:25;102154.84;;;8.62;100.00
30421;BME280;17218;54.070;10.012;2023-04-20T08:37:51;102158.41;;;8.67;100.00
30421;BME280;17218;54.070;10.012;2023-04-20T08:40:18;102155.25;;;8.79;100.00
30421;BME280;17218;54.070;10.012;2023-04-20T08:42:45;102159.13;;;8.99;100.00
30421;BME280;17218;54.070;10.012;2023-04-20T08:45:12;102165.38;;;9.09;100.00
30421;BME280;17218;54.070;10.012;2023-04-20T08:47:39;102161.09;;;9.11;100.00
30421;BME280;17218;54.070;10.012;2023-04-20T08:50:09;102169.88;;;9.19;100.00
30421;BME280;17218;54.070;10.012;2023-04-20T08:52:36;102176.75;;;9.17;100.00
30421;BME280;17218;54.070;10.012;2023-04-20T08:55:05;102184.22;;;9.04;100.00
30421;BME280;17218;54.070;10.012;2023-04-20T08:57:32;102186.53;;;8.92;100.00
30421;BME280;17218;54.070;10.012;2023-04-20T08:59:58;102184.56;;;8.80;100.00
30421;BME280;17218;54.070;10.012;2023-04-20T09:02:25;102198.53;;;8.90;100.00
30421;BME280;17218;54.070;10.012;2023-04-20T09:05:00;102202.06;;;8.93;100.00
30421;BME280;17218;54.070;10.012;2023-04-20T09:07:27;102203.81;;;8.93;100.00
30421;BME280;17218;54.070;10.012;2023-04-20T09:09:55;102193.13;;;8.79;100.00
30421;BME280;17218;54.070;10.012;2023-04-20T09:12:22;102197.84;;;8.60;100.00
30421;BME280;17218;54.070;10.012;2023-04-20T09:14:49;102204.97;;;8.69;100.00
30421;BME280;17218;54.070;10.012;2023-04-20T09:17:17;102192.81;;;8.65;100.00
30421;BME280;17218;54.070;10.012;2023-04-20T09:19:50;102199.69;;;8.64;100.00
30421;BME280;17218;54.070;10.012;2023-04-20T09:22:29;102193.72;;;8.67;100.00
30421;BME280;17218;54.070;10.012;2023-04-20T09:24:56;102202.31;;;8.67;100.00
30421;BME280;17218;54.070;10.012;2023-04-20T09:27:23;102204.28;;;8.76;100.00
30421;BME280;17218;54.070;10.012;2023-04-20T09:29:56;102216.63;;;8.90;100.00
30421;BME280;17218;54.070;10.012;2023-04-20T09:32:23;102216.56;;;8.87;100.00
30421;BME280;17218;54.070;10.012;2023-04-20T09:34:50;102221.78;;;8.88;100.00
30421;BME280;17218;54.070;10.012;2023-04-20T09:37:16;102202.69;;;8.81;100.00
30421;BME280;17218;54.070;10.012;2023-04-20T09:39:45;102204.50;;;8.86;100.00
30421;BME280;17218;54.070;10.012;2023-04-20T09:42:13;102198.03;;;9.05;100.00
30421;BME280;17218;54.070;10.012;2023-04-20T09:44:40;102195.16;;;9.31;100.00
30421;BME280;17218;54.070;10.012;2023-04-20T09:47:07;102198.16;;;9.51;100.00
30421;BME280;17218;54.070;10.012;2023-04-20T09:49:34;102184.44;;;9.54;100.00
30421;BME280;17218;54.070;10.012;2023-04-20T09:52:01;102196.31;;;9.46;100.00
30421;BME280;17218;54.070;10.012;2023-04-20T09:54:28;102193.69;;;9.44;100.00
30421;BME280;17218;54.070;10.012;2023-04-20T09:56:57;102188.59;;;9.49;100.00
30421;BME280;17218;54.070;10.012;2023-04-20T09:59:25;102188.78;;;9.58;100.00
30421;BME280;17218;54.070;10.012;2023-04-20T10:01:52;102183.59;;;9.57;100.00
30421;BME280;17218;54.070;10.012;2023-04-20T10:04:19;102176.88;;;9.65;100.00
30421;BME280;17218;54.070;10.012;2023-04-20T10:06:51;102178.66;;;9.69;100.00
30421;BME280;17218;54.070;10.012;2023-04-20T10:09:20;102175.34;;;9.76;100.00
30421;BME280;17218;54.070;10.012;2023-04-20T10:11:47;102175.09;;;10.09;100.00
30421;BME280;17218;54.070;10.012;2023-04-20T10:14:16;102168.72;;;10.41;100.00
30421;BME280;17218;54.070;10.012;2023-04-20T10:16:44;102158.06;;;10.76;100.00
30421;BME280;17218;54.070;10.012;2023-04-20T10:19:11;102159.00;;;10.80;100.00
30421;BME280;17218;54.070;10.012;2023-04-20T10:21:45;102159.78;;;10.74;100.00
30421;BME280;17218;54.070;10.012;2023-04-20T10:24:12;102165.13;;;10.87;100.00
30421;BME280;17218;54.070;10.012;2023-04-20T10:26:41;102161.78;;;10.95;100.00
30421;BME280;17218;54.070;10.012;2023-04-20T10:29:09;102165.50;;;11.15;100.00
30421;BME280;17218;54.070;10.012;2023-04-20T10:31:39;102162.97;;;11.19;100.00
30421;BME280;17218;54.070;10.012;2023-04-20T10:34:06;102160.09;;;10.99;100.00
30421;BME280;17218;54.070;10.012;2023-04-20T10:36:34;102161.09;;;11.07;100.00
30421;BME280;17218;54.070;10.012;2023-04-20T10:39:13;102151.59;;;11.09;100.00
30421;BME280;17218;54.070;10.012;2023-04-20T10:41:51;102162.91;;;11.13;100.00
30421;BME280;17218;54.070;10.012;2023-04-20T10:44:18;102144.78;;;11.18;100.00
30421;BME280;17218;54.070;10.012;2023-04-20T10:46:48;102158.38;;;10.96;100.00
30421;BME280;17218;54.070;10.012;2023-04-20T10:49:16;102154.13;;;11.05;100.00
30421;BME280;17218;54.070;10.012;2023-04-20T10:51:46;102162.06;;;11.17;100.00
30421;BME280;17218;54.070;10.012;2023-04-20T10:54:13;102159.84;;;11.49;100.00
30421;BME280;17218;54.070;10.012;2023-04-20T10:56:40;102155.03;;;11.81;100.00
30421;BME280;17218;54.070;10.012;2023-04-20T10:59:08;102145.84;;;12.15;100.00
30421;BME280;17218;54.070;10.012;2023-04-20T11:01:35;102140.78;;;12.34;100.00
30421;BME280;17218;54.070;10.012;2023-04-20T11:04:03;102146.03;;;12.37;100.00
30421;BME280;17218;54.070;10.012;2023-04-20T11:06:31;102134.78;;;12.39;100.00
30421;BME280;17218;54.070;10.012;2023-04-20T11:08:58;102140.88;;;12.43;100.00
30421;BME280;17218;54.070;10.012;2023-04-20T11:11:25;102134.09;;;12.64;100.00
30421;BME280;17218;54.070;10.012;2023-04-20T11:14:04;102139.34;;;12.73;100.00
30421;BME280;17218;54.070;10.012;2023-04-20T11:16:30;102125.59;;;12.95;100.00
30421;BME280;17218;54.070;10.012;2023-04-20T11:18:57;102124.69;;;12.93;100.00
30421;BME280;17218;54.070;10.012;2023-04-20T11:21:34;102133.47;;;13.10;100.00
30421;BME280;17218;54.070;10.012;2023-04-20T11:24:01;102136.91;;;13.08;100.00
30421;BME280;17218;54.070;10.012;2023-04-20T11:26:33;102138.72;;;13.18;100.00
30421;BME280;17218;54.070;10.012;2023-04-20T11:29:00;102130.94;;;13.28;100.00
30421;BME280;17218;54.070;10.012;2023-04-20T11:31:28;102122.25;;;13.27;100.00
30421;BME280;17218;54.070;10.012;2023-04-20T11:33:54;102128.34;;;13.37;100.00
30421;BME280;17218;54.070;10.012;2023-04-20T11:36:22;102126.69;;;13.52;100.00
30421;BME280;17218;54.070;10.012;2023-04-20T11:38:50;102125.88;;;13.70;100.00
30421;BME280;17218;54.070;10.012;2023-04-20T11:41:17;102131.09;;;13.87;100.00
30421;BME280;17218;54.070;10.012;2023-04-20T11:43:44;102132.81;;;13.69;100.00
30421;BME280;17218;54.070;10.012;2023-04-20T11:46:14;102121.53;;;13.67;100.00
30421;BME280;17218;54.070;10.012;2023-04-20T11:48:42;102120.69;;;13.86;100.00
30421;BME280;17218;54.070;10.012;2023-04-20T11:51:08;102103.31;;;14.10;100.00
30421;BME280;17218;54.070;10.012;2023-04-20T11:53:35;102104.16;;;14.35;100.00
30421;BME280;17218;54.070;10.012;2023-04-20T11:56:04;102101.59;;;14.21;100.00
30421;BME280;17218;54.070;10.012;2023-04-20T11:58:31;102095.50;;;14.00;100.00
30421;BME280;17218;54.070;10.012;2023-04-20T12:00:57;102095.50;;;13.81;100.00
30421;BME280;17218;54.070;10.012;2023-04-20T12:03:24;102098.97;;;13.74;100.00
30421;BME280;17218;54.070;10.012;2023-04-20T12:05:51;102098.09;;;13.77;100.00
30421;BME280;17218;54.070;10.012;2023-04-20T12:08:17;102106.78;;;13.83;100.00
30421;BME280;17218;54.070;10.012;2023-04-20T12:10:44;102093.78;;;14.02;100.00
30421;BME280;17218;54.070;10.012;2023-04-20T12:13:12;102105.03;;;14.39;100.00
30421;BME280;17218;54.070;10.012;2023-04-20T12:15:39;102091.91;;;14.76;100.00
30421;BME280;17218;54.070;10.012;2023-04-20T12:18:06;102089.72;;;15.69;100.00
30421;BME280;17218;54.070;10.012;2023-04-20T12:20:33;102088.31;;;17.73;100.00
30421;BME280;17218;54.070;10.012;2023-04-20T12:22:59;102078.69;;;19.93;100.00
30421;BME280;17218;54.070;10.012;2023-04-20T12:25:26;102073.28;;;20.94;80.56
30421;BME280;17218;54.070;10.012;2023-04-20T12:27:53;102071.97;;;21.38;76.46
30421;BME280;17218;54.070;10.012;2023-04-20T12:30:21;102060.06;;;23.50;72.54
30421;BME280;17218;54.070;10.012;2023-04-20T12:32:48;102067.75;;;25.35;57.32
30421;BME280;17218;54.070;10.012;2023-04-20T12:35:14;102051.88;;;26.40;50.01
30421;BME280;17218;54.070;10.012;2023-04-20T12:37:41;102066.16;;;26.37;48.12
30421;BME280;17218;54.070;10.012;2023-04-20T12:40:08;102054.97;;;26.97;47.08